sensor_id;sensor_type;location;lat;lon;timestamp;pressure;altitude;pressure_sealevel;temperature;humidity
39715;BME280;54166;53.172;-6.552;2022-07-06T00:00:00;100582.53;;;20.52;36.08
39715;BME280;54166;53.172;-6.552;2022-07-06T00:02:27;100583.53;;;20.51;36.06
39715;BME280;54166;53.172;-6.552;2022-07-06T00:04:54;100590.65;;;20.49;36.11
39715;BME280;54166;53.172;-6.552;2022-07-06T00:07:21;100589.05;;;20.49;36.07
39715;BME280;54166;53.172;-6.552;2022-07-06T00:09:48;100595.31;;;20.48;36.08
39715;BME280;54166;53.172;-6.552;2022-07-06T00:12:15;100595.28;;;20.47;36.13
39715;BME280;54166;53.172;-6.552;2022-07-06T00:14:41;100596.26;;;20.13;36.13
39715;BME280;54166;53.172;-6.552;2022-07-06T00:17:08;100600.15;;;20.46;36.09
39715;BME280;54166;53.172;-6.552;2022-07-06T00:19:35;100605.65;;;20.46;36.11
39715;BME280;54166;53.172;-6.552;2022-07-06T00:22:02;100608.43;;;20.12;36.06
39715;BME280;54166;53.172;-6.552;2022-07-06T00:24:30;100604.06;;;20.13;36.07
39715;BME280;54166;53.172;-6.552;2022-07-06T00:26:57;100597.92;;;20.12;36.06
39715;BME280;54166;53.172;-6.552;2022-07-06T00:29:24;100603.68;;;20.45;36.08
39715;BME280;54166;53.172;-6.552;2022-07-06T00:31:51;100609.68;;;20.10;36.10
39715;BME280;54166;53.172;-6.552;2022-07-06T00:34:18;100606.92;;;20.10;36.08
39715;BME280;54166;53.172;-6.552;2022-07-06T00:36:45;100598.95;;;20.44;36.10
39715;BME280;54166;53.172;-6.552;2022-07-06T00:39:12;100600.52;;;20.10;36.09
39715;BME280;54166;53.172;-6.552;2022-07-06T00:41:39;100596.05;;;20.43;36.08
39715;BME280;54166;53.172;-6.552;2022-07-06T00:44:08;100595.94;;;20.43;36.10
39715;BME280;54166;53.172;-6.552;2022-07-06T00:46:35;100592.89;;;20.09;36.11
39715;BME280;54166;53.172;-6.552;2022-07-06T00:49:03;100591.97;;;20.41;36.05
39715;BME280;54166;53.172;-6.552;2022-07-06T00:51:33;100595.34;;;20.08;36.06
39715;BME280;54166;53.172;-6.552;2022-07-06T00:54:04;100591.56;;;20.40;36.11
39715;BME280;54166;53.172;-6.552;2022-07-06T00:56:32;100588.52;;;20.07;36.12
39715;BME280;54166;53.172;-6.552;2022-07-06T00:59:02;100583.23;;;20.07;36.13
39715;BME280;54166;53.172;-6.552;2022-07-06T01:01:29;100572.23;;;20.07;36.10
39715;BME280;54166;53.172;-6.552;2022-07-06T01:03:56;100564.98;;;20.40;36.10
39715;BME280;54166;53.172;-6.552;2022-07-06T01:06:25;100560.12;;;20.41;36.12
39715;BME280;54166;53.172;-6.552;2022-07-06T01:08:52;100555.67;;;20.41;36.14
39715;BME280;54166;53.172;-6.552;2022-07-06T01:11:19;100558.66;;;20.08;36.17
39715;BME280;54166;53.172;-6.552;2022-07-06T01:13:47;100570.20;;;20.42;36.15
39715;BME280;54166;53.172;-6.552;2022-07-06T01:16:14;100573.38;;;20.41;36.16
39715;BME280;54166;53.172;-6.552;2022-07-06T01:18:42;100578.02;;;20.43;36.13
39715;BME280;54166;53.172;-6.552;2022-07-06T01:21:11;100577.43;;;20.42;36.09
39715;BME280;54166;53.172;-6.552;2022-07-06T01:23:40;100577.90;;;20.42;36.13
39715;BME280;54166;53.172;-6.552;2022-07-06T01:26:11;100571.38;;;20.42;36.08
39715;BME280;54166;53.172;-6.552;2022-07-06T01:28:40;100567.19;;;20.41;36.13
39715;BME280;54166;53.172;-6.552;2022-07-06T01:31:14;100562.45;;;20.42;36.11
39715;BME280;54166;53.172;-6.552;2022-07-06T01:33:42;100562.53;;;20.07;36.13
39715;BME280;54166;53.172;-6.552;2022-07-06T01:36:10;100566.77;;;20.07;36.13
39715;BME280;54166;53.172;-6.552;2022-07-06T01:38:44;100561.87;;;20.08;36.15
39715;BME280;54166;53.172;-6.552;2022-07-06T01:41:12;100559.44;;;20.40;36.16
39715;BME280;54166;53.172;-6.552;2022-07-06T01:43:39;100555.81;;;20.07;36.12
39715;BME280;54166;53.172;-6.552;2022-07-06T01:46:07;100552.07;;;20.08;36.16
39715;BME280;54166;53.172;-6.552;2022-07-06T01:48:34;100550.78;;;20.43;36.18
39715;BME280;54166;53.172;-6.552;2022-07-06T01:51:02;100545.80;;;20.43;36.20
39715;BME280;54166;53.172;-6.552;2022-07-06T01:53:30;100545.28;;;20.43;36.20
39715;BME280;54166;53.172;-6.552;2022-07-06T01:55:57;100541.61;;;20.43;36.20
39715;BME280;54166;53.172;-6.552;2022-07-06T01:58:25;100541.02;;;20.43;36.23
39715;BME280;54166;53.172;-6.552;2022-07-06T02:00:52;100539.89;;;20.43;36.26
39715;BME280;54166;53.172;-6.552;2022-07-06T02:03:19;100535.61;;;20.43;36.22
39715;BME280;54166;53.172;-6.552;2022-07-06T02:05:47;100528.42;;;20.10;36.20
39715;BME280;54166;53.172;-6.552;2022-07-06T02:08:14;100522.05;;;20.44;36.20
39715;BME280;54166;53.172;-6.552;2022-07-06T02:10:41;100518.61;;;20.44;36.12
39715;BME280;54166;53.172;-6.552;2022-07-06T02:13:08;100511.80;;;20.46;36.14
39715;BME280;54166;53.172;-6.552;2022-07-06T02:15:35;100510.43;;;20.13;36.17
39715;BME280;54166;53.172;-6.552;2022-07-06T02:18:02;100509.47;;;20.48;36.23
39715;BME280;54166;53.172;-6.552;2022-07-06T02:20:29;100507.16;;;20.48;36.23
39715;BME280;54166;53.172;-6.552;2022-07-06T02:22:56;100496.91;;;20.16;36.24
39715;BME280;54166;53.172;-6.552;2022-07-06T02:25:23;100498.90;;;20.50;36.21
39715;BME280;54166;53.172;-6.552;2022-07-06T02:27:50;100501.57;;;20.49;36.27
39715;BME280;54166;53.172;-6.552;2022-07-06T02:33:30;100516.05;;;21.27;36.88
39715;BME280;54166;53.172;-6.552;2022-07-06T02:35:57;100519.03;;;20.24;36.59
39715;BME280;54166;53.172;-6.552;2022-07-06T02:38:24;100517.67;;;20.38;36.43
39715;BME280;54166;53.172;-6.552;2022-07-06T02:40:51;100512.52;;;20.43;36.36
39715;BME280;54166;53.172;-6.552;2022-07-06T02:43:18;100509.05;;;20.13;36.37
39715;BME280;54166;53.172;-6.552;2022-07-06T02:45:45;100508.60;;;20.14;36.43
39715;BME280;54166;53.172;-6.552;2022-07-06T02:48:12;100502.63;;;20.15;36.40
39715;BME280;54166;53.172;-6.552;2022-07-06T02:50:39;100502.87;;;20.16;36.40
39715;BME280;54166;53.172;-6.552;2022-07-06T02:53:06;100503.71;;;20.49;36.40
39715;BME280;54166;53.172;-6.552;2022-07-06T02:55:33;100504.86;;;20.16;36.40
39715;BME280;54166;53.172;-6.552;2022-07-06T02:58:00;100509.96;;;19.77;36.37
39715;BME280;54166;53.172;-6.552;2022-07-06T03:00:27;100508.44;;;20.50;36.37
39715;BME280;54166;53.172;-6.552;2022-07-06T03:02:54;100513.56;;;20.18;36.44
39715;BME280;54166;53.172;-6.552;2022-07-06T03:05:21;100514.36;;;20.52;36.38
39715;BME280;54166;53.172;-6.552;2022-07-06T03:07:48;100509.88;;;20.52;36.44
39715;BME280;54166;53.172;-6.552;2022-07-06T03:10:15;100507.06;;;20.52;36.43
39715;BME280;54166;53.172;-6.552;2022-07-06T03:12:42;100505.99;;;20.19;36.43
39715;BME280;54166;53.172;-6.552;2022-07-06T03:15:09;100510.51;;;20.53;36.45
39715;BME280;54166;53.172;-6.552;2022-07-06T03:17:37;100509.55;;;20.20;36.37
39715;BME280;54166;53.172;-6.552;2022-07-06T03:20:06;100514.50;;;20.53;36.41
39715;BME280;54166;53.172;-6.552;2022-07-06T03:22:33;100515.09;;;20.54;36.47
39715;BME280;54166;53.172;-6.552;2022-07-06T03:25:00;100511.39;;;20.21;36.44
39715;BME280;54166;53.172;-6.552;2022-07-06T03:27:28;100513.26;;;20.53;36.47
39715;BME280;54166;53.172;-6.552;2022-07-06T03:29:55;100508.46;;;20.21;36.44
39715;BME280;54166;53.172;-6.552;2022-07-06T03:32:22;100506.94;;;20.21;36.51
39715;BME280;54166;53.172;-6.552;2022-07-06T03:34:48;100510.65;;;20.21;36.44
39715;BME280;54166;53.172;-6.552;2022-07-06T03:37:15;100513.56;;;20.55;36.45
39715;BME280;54166;53.172;-6.552;2022-07-06T03:39:42;100517.47;;;20.55;36.50
39715;BME280;54166;53.172;-6.552;2022-07-06T03:42:09;100513.56;;;20.21;36.44
39715;BME280;54166;53.172;-6.552;2022-07-06T03:44:36;100513.83;;;19.81;36.53
39715;BME280;54166;53.172;-6.552;2022-07-06T03:47:03;100517.90;;;20.21;36.52
39715;BME280;54166;53.172;-6.552;2022-07-06T03:49:30;100524.52;;;20.54;36.49
39715;BME280;54166;53.172;-6.552;2022-07-06T03:51:57;100525.81;;;20.54;36.47
39715;BME280;54166;53.172;-6.552;2022-07-06T03:54:25;100527.06;;;20.21;36.46
39715;BME280;54166;53.172;-6.552;2022-07-06T03:56:52;100529.90;;;20.55;36.45
39715;BME280;54166;53.172;-6.552;2022-07-06T03:59:19;100529.93;;;20.55;36.53
39715;BME280;54166;53.172;-6.552;2022-07-06T04:01:46;100534.17;;;20.55;36.52
39715;BME280;54166;53.172;-6.552;2022-07-06T04:04:12;100532.83;;;19.82;36.52
39715;BME280;54166;53.172;-6.552;2022-07-06T04:06:39;100530.55;;;20.55;36.48
39715;BME280;54166;53.172;-6.552;2022-07-06T04:09:06;100529.08;;;20.55;36.51
39715;BME280;54166;53.172;-6.552;2022-07-06T04:11:34;100523.30;;;20.55;36.47
39715;BME280;54166;53.172;-6.552;2022-07-06T04:14:01;100527.52;;;20.55;36.47
39715;BME280;54166;53.172;-6.552;2022-07-06T04:16:28;100533.47;;;20.55;36.52
39715;BME280;54166;53.172;-6.552;2022-07-06T04:18:55;100532.66;;;20.56;36.42
39715;BME280;54166;53.172;-6.552;2022-07-06T04:21:22;100530.06;;;20.23;36.40
39715;BME280;54166;53.172;-6.552;2022-07-06T04:23:49;100528.62;;;20.56;36.44
39715;BME280;54166;53.172;-6.552;2022-07-06T04:26:16;100522.97;;;20.55;36.46
39715;BME280;54166;53.172;-6.552;2022-07-06T04:28:43;100518.69;;;20.55;36.38
39715;BME280;54166;53.172;-6.552;2022-07-06T04:31:10;100521.65;;;20.22;36.39
39715;BME280;54166;53.172;-6.552;2022-07-06T04:33:39;100520.98;;;20.56;36.38
39715;BME280;54166;53.172;-6.552;2022-07-06T04:36:06;100522.44;;;20.23;36.44
39715;BME280;54166;53.172;-6.552;2022-07-06T04:38:34;100519.74;;;20.23;36.42
39715;BME280;54166;53.172;-6.552;2022-07-06T04:41:01;100517.73;;;20.22;36.55
39715;BME280;54166;53.172;-6.552;2022-07-06T04:43:29;100514.46;;;20.56;36.52
39715;BME280;54166;53.172;-6.552;2022-07-06T04:45:56;100519.06;;;20.23;36.54
39715;BME280;54166;53.172;-6.552;2022-07-06T04:48:23;100521.96;;;19.82;36.52
39715;BME280;54166;53.172;-6.552;2022-07-06T04:50:50;100525.07;;;20.56;36.44
39715;BME280;54166;53.172;-6.552;2022-07-06T04:53:17;100525.64;;;20.56;36.38
39715;BME280;54166;53.172;-6.552;2022-07-06T04:55:44;100528.22;;;19.83;36.38
39715;BME280;54166;53.172;-6.552;2022-07-06T04:58:10;100524.32;;;20.57;36.45
39715;BME280;54166;53.172;-6.552;2022-07-06T05:00:37;100518.53;;;20.57;36.38
39715;BME280;54166;53.172;-6.552;2022-07-06T05:03:04;100518.35;;;20.24;36.48
39715;BME280;54166;53.172;-6.552;2022-07-06T05:05:31;100520.67;;;20.23;36.47
39715;BME280;54166;53.172;-6.552;2022-07-06T05:07:58;100519.23;;;20.58;36.43
39715;BME280;54166;53.172;-6.552;2022-07-06T05:10:25;100518.36;;;20.57;36.47
39715;BME280;54166;53.172;-6.552;2022-07-06T05:12:54;100521.11;;;20.57;36.45
39715;BME280;54166;53.172;-6.552;2022-07-06T05:15:21;100519.95;;;20.56;36.49
39715;BME280;54166;53.172;-6.552;2022-07-06T05:17:48;100524.66;;;20.23;36.44
39715;BME280;54166;53.172;-6.552;2022-07-06T05:20:15;100528.24;;;19.84;36.40
39715;BME280;54166;53.172;-6.552;2022-07-06T05:22:42;100525.33;;;20.57;36.48
39715;BME280;54166;53.172;-6.552;2022-07-06T05:25:09;100522.27;;;20.57;36.53
39715;BME280;54166;53.172;-6.552;2022-07-06T05:27:37;100519.16;;;20.64;36.39
39715;BME280;54166;53.172;-6.552;2022-07-06T05:30:05;100519.24;;;20.28;36.50
39715;BME280;54166;53.172;-6.552;2022-07-06T05:32:33;100515.15;;;20.60;36.44
39715;BME280;54166;53.172;-6.552;2022-07-06T05:35:00;100517.45;;;20.59;36.50
39715;BME280;54166;53.172;-6.552;2022-07-06T05:37:27;100520.46;;;20.58;36.50
39715;BME280;54166;53.172;-6.552;2022-07-06T05:39:54;100524.11;;;20.58;36.46
39715;BME280;54166;53.172;-6.552;2022-07-06T05:42:21;100527.92;;;19.86;36.46
39715;BME280;54166;53.172;-6.552;2022-07-06T05:44:48;100529.32;;;20.64;36.42
39715;BME280;54166;53.172;-6.552;2022-07-06T05:47:15;100526.09;;;20.62;36.42
39715;BME280;54166;53.172;-6.552;2022-07-06T05:49:42;100530.47;;;20.27;36.42
39715;BME280;54166;53.172;-6.552;2022-07-06T05:52:09;100527.07;;;20.60;36.42
39715;BME280;54166;53.172;-6.552;2022-07-06T05:54:35;100527.62;;;20.27;36.54
39715;BME280;54166;53.172;-6.552;2022-07-06T05:57:03;100519.12;;;19.87;36.56
39715;BME280;54166;53.172;-6.552;2022-07-06T05:59:30;100513.95;;;20.60;36.57
39715;BME280;54166;53.172;-6.552;2022-07-06T06:01:57;100514.00;;;20.26;36.50
39715;BME280;54166;53.172;-6.552;2022-07-06T06:04:24;100514.54;;;20.26;36.50
39715;BME280;54166;53.172;-6.552;2022-07-06T06:06:52;100524.67;;;20.59;36.52
39715;BME280;54166;53.172;-6.552;2022-07-06T06:09:18;100525.72;;;20.60;36.52
39715;BME280;54166;53.172;-6.552;2022-07-06T06:11:45;100522.03;;;20.61;36.51
39715;BME280;54166;53.172;-6.552;2022-07-06T06:14:13;100520.53;;;19.87;36.59
39715;BME280;54166;53.172;-6.552;2022-07-06T06:16:40;100521.29;;;20.60;36.55
39715;BME280;54166;53.172;-6.552;2022-07-06T06:19:07;100516.48;;;20.60;36.54
39715;BME280;54166;53.172;-6.552;2022-07-06T06:21:34;100519.06;;;20.60;36.57
39715;BME280;54166;53.172;-6.552;2022-07-06T06:24:01;100519.86;;;20.60;36.50
39715;BME280;54166;53.172;-6.552;2022-07-06T06:26:28;100526.38;;;20.60;36.49
39715;BME280;54166;53.172;-6.552;2022-07-06T06:28:54;100527.90;;;20.60;36.46
39715;BME280;54166;53.172;-6.552;2022-07-06T06:31:21;100529.26;;;20.60;36.50
39715;BME280;54166;53.172;-6.552;2022-07-06T06:33:48;100527.41;;;20.26;36.51
39715;BME280;54166;53.172;-6.552;2022-07-06T06:36:15;100529.96;;;20.60;36.54
39715;BME280;54166;53.172;-6.552;2022-07-06T06:38:43;100525.32;;;20.27;36.60
39715;BME280;54166;53.172;-6.552;2022-07-06T06:41:10;100527.81;;;20.61;36.60
39715;BME280;54166;53.172;-6.552;2022-07-06T06:43:38;100525.96;;;20.61;36.57
39715;BME280;54166;53.172;-6.552;2022-07-06T06:46:05;100524.11;;;20.35;36.55
39715;BME280;54166;53.172;-6.552;2022-07-06T06:48:32;100525.26;;;20.66;36.51
39715;BME280;54166;53.172;-6.552;2022-07-06T06:50:59;100528.33;;;20.65;36.47
39715;BME280;54166;53.172;-6.552;2022-07-06T06:53:26;100529.22;;;20.64;36.51
39715;BME280;54166;53.172;-6.552;2022-07-06T06:55:52;100530.00;;;19.91;36.48
39715;BME280;54166;53.172;-6.552;2022-07-06T06:58:19;100529.47;;;20.63;36.48
39715;BME280;54166;53.172;-6.552;2022-07-06T07:00:46;100536.80;;;20.29;36.50
39715;BME280;54166;53.172;-6.552;2022-07-06T07:03:13;100534.13;;;20.62;36.45
39715;BME280;54166;53.172;-6.552;2022-07-06T07:05:40;100531.70;;;20.29;36.44
39715;BME280;54166;53.172;-6.552;2022-07-06T07:08:07;100530.68;;;20.62;36.46
39715;BME280;54166;53.172;-6.552;2022-07-06T07:10:34;100534.73;;;20.62;36.51
39715;BME280;54166;53.172;-6.552;2022-07-06T07:13:01;100533.74;;;20.62;36.52
39715;BME280;54166;53.172;-6.552;2022-07-06T07:15:29;100532.79;;;20.61;36.49
39715;BME280;54166;53.172;-6.552;2022-07-06T07:17:56;100534.51;;;20.29;36.45
39715;BME280;54166;53.172;-6.552;2022-07-06T07:20:24;100533.80;;;20.61;36.42
39715;BME280;54166;53.172;-6.552;2022-07-06T07:22:52;100535.14;;;20.28;36.46
39715;BME280;54166;53.172;-6.552;2022-07-06T07:25:18;100535.51;;;20.29;36.49
39715;BME280;54166;53.172;-6.552;2022-07-06T07:27:45;100536.52;;;20.62;36.49
39715;BME280;54166;53.172;-6.552;2022-07-06T07:30:12;100534.11;;;20.29;36.56
39715;BME280;54166;53.172;-6.552;2022-07-06T07:32:40;100532.21;;;20.62;36.55
39715;BME280;54166;53.172;-6.552;2022-07-06T07:35:07;100532.20;;;20.29;36.55
39715;BME280;54166;53.172;-6.552;2022-07-06T07:37:35;100533.08;;;20.29;36.59
39715;BME280;54166;53.172;-6.552;2022-07-06T07:40:03;100530.18;;;19.90;36.56
39715;BME280;54166;53.172;-6.552;2022-07-06T07:42:31;100530.75;;;20.31;36.59
39715;BME280;54166;53.172;-6.552;2022-07-06T07:44:59;100534.43;;;20.64;36.36
39715;BME280;54166;53.172;-6.552;2022-07-06T07:47:26;100529.74;;;20.63;36.27
39715;BME280;54166;53.172;-6.552;2022-07-06T07:49:53;100531.00;;;20.29;36.34
39715;BME280;54166;53.172;-6.552;2022-07-06T07:52:20;100528.96;;;20.62;36.22
39715;BME280;54166;53.172;-6.552;2022-07-06T07:54:47;100526.97;;;20.61;36.20
39715;BME280;54166;53.172;-6.552;2022-07-06T07:57:14;100526.83;;;20.62;36.12
39715;BME280;54166;53.172;-6.552;2022-07-06T07:59:42;100526.23;;;20.61;36.02
39715;BME280;54166;53.172;-6.552;2022-07-06T08:02:09;100526.29;;;20.28;35.98
39715;BME280;54166;53.172;-6.552;2022-07-06T08:04:36;100527.87;;;20.26;36.07
39715;BME280;54166;53.172;-6.552;2022-07-06T08:07:03;100525.47;;;20.59;36.05
39715;BME280;54166;53.172;-6.552;2022-07-06T08:09:31;100528.70;;;20.58;36.01
39715;BME280;54166;53.172;-6.552;2022-07-06T08:11:59;100530.29;;;20.58;35.95
39715;BME280;54166;53.172;-6.552;2022-07-06T08:14:27;100529.90;;;20.24;35.95
39715;BME280;54166;53.172;-6.552;2022-07-06T08:16:54;100529.41;;;20.57;35.97
39715;BME280;54166;53.172;-6.552;2022-07-06T08:19:21;100529.75;;;20.24;35.90
39715;BME280;54166;53.172;-6.552;2022-07-06T08:21:48;100527.01;;;20.57;35.93
39715;BME280;54166;53.172;-6.552;2022-07-06T08:24:15;100530.28;;;20.56;35.95
39715;BME280;54166;53.172;-6.552;2022-07-06T08:26:42;100530.65;;;20.22;35.99
39715;BME280;54166;53.172;-6.552;2022-07-06T08:29:10;100532.27;;;20.56;35.94
39715;BME280;54166;53.172;-6.552;2022-07-06T08:31:37;100535.26;;;20.55;35.88
39715;BME280;54166;53.172;-6.552;2022-07-06T08:34:04;100532.56;;;20.56;35.97
39715;BME280;54166;53.172;-6.552;2022-07-06T08:36:31;100529.33;;;20.21;35.94
39715;BME280;54166;53.172;-6.552;2022-07-06T08:38:59;100525.97;;;20.56;36.37
39715;BME280;54166;53.172;-6.552;2022-07-06T08:41:28;100524.13;;;20.22;36.61
39715;BME280;54166;53.172;-6.552;2022-07-06T08:43:56;100523.10;;;20.52;36.78
39715;BME280;54166;53.172;-6.552;2022-07-06T08:46:23;100524.41;;;20.53;36.81
39715;BME280;54166;53.172;-6.552;2022-07-06T08:48:50;100526.49;;;20.18;36.91
39715;BME280;54166;53.172;-6.552;2022-07-06T08:51:17;100523.21;;;20.16;37.01
39715;BME280;54166;53.172;-6.552;2022-07-06T08:53:45;100525.88;;;20.18;36.99
39715;BME280;54166;53.172;-6.552;2022-07-06T08:56:13;100529.51;;;20.49;37.08
39715;BME280;54166;53.172;-6.552;2022-07-06T08:58:40;100520.70;;;20.48;37.07
39715;BME280;54166;53.172;-6.552;2022-07-06T09:01:09;100529.66;;;20.50;37.07
39715;BME280;54166;53.172;-6.552;2022-07-06T09:03:39;100527.85;;;20.48;36.98
39715;BME280;54166;53.172;-6.552;2022-07-06T09:06:07;100526.01;;;20.14;36.94
39715;BME280;54166;53.172;-6.552;2022-07-06T09:08:34;100528.07;;;20.45;36.91
39715;BME280;54166;53.172;-6.552;2022-07-06T09:11:01;100523.46;;;20.44;36.84
39715;BME280;54166;53.172;-6.552;2022-07-06T09:13:29;100520.25;;;20.44;36.83
39715;BME280;54166;53.172;-6.552;2022-07-06T09:15:55;100522.18;;;20.43;36.87
39715;BME280;54166;53.172;-6.552;2022-07-06T09:18:36;100516.95;;;20.75;36.94
39715;BME280;54166;53.172;-6.552;2022-07-06T09:21:04;100514.45;;;20.44;36.94
39715;BME280;54166;53.172;-6.552;2022-07-06T09:23:32;100509.50;;;20.43;36.96
39715;BME280;54166;53.172;-6.552;2022-07-06T09:26:02;100513.97;;;20.12;36.95
39715;BME280;54166;53.172;-6.552;2022-07-06T09:28:40;100521.22;;;20.42;36.99
39715;BME280;54166;53.172;-6.552;2022-07-06T09:31:09;100522.96;;;20.09;37.03
39715;BME280;54166;53.172;-6.552;2022-07-06T09:33:37;100521.81;;;20.43;37.07
39715;BME280;54166;53.172;-6.552;2022-07-06T09:36:05;100525.95;;;19.71;37.08
39715;BME280;54166;53.172;-6.552;2022-07-06T09:38:32;100529.97;;;19.72;37.12
39715;BME280;54166;53.172;-6.552;2022-07-06T09:40:59;100531.56;;;20.10;37.18
39715;BME280;54166;53.172;-6.552;2022-07-06T09:43:27;100532.83;;;20.41;37.07
39715;BME280;54166;53.172;-6.552;2022-07-06T09:45:55;100533.74;;;20.07;37.04
39715;BME280;54166;53.172;-6.552;2022-07-06T09:48:24;100533.20;;;20.35;37.04
39715;BME280;54166;53.172;-6.552;2022-07-06T09:50:53;100544.67;;;20.37;37.05
39715;BME280;54166;53.172;-6.552;2022-07-06T09:53:22;100540.17;;;20.39;37.07
39715;BME280;54166;53.172;-6.552;2022-07-06T09:55:51;100546.54;;;20.36;37.07
39715;BME280;54166;53.172;-6.552;2022-07-06T09:58:20;100542.38;;;20.35;37.10
39715;BME280;54166;53.172;-6.552;2022-07-06T10:00:48;100540.76;;;20.01;37.12
39715;BME280;54166;53.172;-6.552;2022-07-06T10:03:16;100537.12;;;20.37;37.15
39715;BME280;54166;53.172;-6.552;2022-07-06T10:05:45;100531.98;;;20.06;37.16
39715;BME280;54166;53.172;-6.552;2022-07-06T10:08:14;100523.43;;;20.39;37.20
39715;BME280;54166;53.172;-6.552;2022-07-06T10:10:43;100524.27;;;20.37;37.26
39715;BME280;54166;53.172;-6.552;2022-07-06T10:13:11;100522.71;;;20.40;37.30
39715;BME280;54166;53.172;-6.552;2022-07-06T10:15:39;100521.11;;;20.07;37.21
39715;BME280;54166;53.172;-6.552;2022-07-06T10:18:08;100513.62;;;20.37;37.17
39715;BME280;54166;53.172;-6.552;2022-07-06T10:20:37;100514.19;;;20.05;37.18
39715;BME280;54166;53.172;-6.552;2022-07-06T10:23:07;100511.69;;;20.42;37.21
39715;BME280;54166;53.172;-6.552;2022-07-06T10:25:35;100505.90;;;20.43;37.35
39715;BME280;54166;53.172;-6.552;2022-07-06T10:28:02;100498.72;;;20.44;37.44
39715;BME280;54166;53.172;-6.552;2022-07-06T10:30:30;100495.67;;;20.48;37.40
39715;BME280;54166;53.172;-6.552;2022-07-06T10:32:58;100494.02;;;20.50;37.49
39715;BME280;54166;53.172;-6.552;2022-07-06T10:35:27;100489.81;;;20.19;37.52
39715;BME280;54166;53.172;-6.552;2022-07-06T10:38:04;100484.75;;;20.56;37.62
39715;BME280;54166;53.172;-6.552;2022-07-06T10:40:33;100486.77;;;20.53;37.73
39715;BME280;54166;53.172;-6.552;2022-07-06T10:43:02;100490.93;;;20.18;37.76
39715;BME280;54166;53.172;-6.552;2022-07-06T10:46:07;100490.19;;;21.60;37.81
39715;BME280;54166;53.172;-6.552;2022-07-06T10:48:35;100487.75;;;20.49;38.03
39715;BME280;54166;53.172;-6.552;2022-07-06T10:51:03;100490.35;;;20.21;37.96
39715;BME280;54166;53.172;-6.552;2022-07-06T10:53:32;100490.25;;;20.59;38.18
39715;BME280;54166;53.172;-6.552;2022-07-06T10:56:02;100489.65;;;20.28;38.13
39715;BME280;54166;53.172;-6.552;2022-07-06T10:58:40;100493.66;;;20.30;38.06
39715;BME280;54166;53.172;-6.552;2022-07-06T11:01:09;100502.25;;;20.62;37.95
39715;BME280;54166;53.172;-6.552;2022-07-06T11:03:39;100494.17;;;20.65;38.01
39715;BME280;54166;53.172;-6.552;2022-07-06T11:06:09;100498.03;;;20.68;38.19
39715;BME280;54166;53.172;-6.552;2022-07-06T11:08:54;100502.93;;;20.36;38.36
39715;BME280;54166;53.172;-6.552;2022-07-06T11:11:24;100506.48;;;20.68;38.49
39715;BME280;54166;53.172;-6.552;2022-07-06T11:13:54;100506.18;;;20.70;38.40
39715;BME280;54166;53.172;-6.552;2022-07-06T11:16:23;100498.59;;;20.70;38.39
39715;BME280;54166;53.172;-6.552;2022-07-06T11:19:00;100497.70;;;20.71;38.33
39715;BME280;54166;53.172;-6.552;2022-07-06T11:21:38;100498.47;;;20.35;38.31
39715;BME280;54166;53.172;-6.552;2022-07-06T11:24:08;100495.21;;;20.69;38.42
39715;BME280;54166;53.172;-6.552;2022-07-06T11:26:36;100499.30;;;20.39;38.49
39715;BME280;54166;53.172;-6.552;2022-07-06T11:29:04;100501.47;;;20.41;38.57
39715;BME280;54166;53.172;-6.552;2022-07-06T11:31:34;100503.47;;;20.43;38.59
39715;BME280;54166;53.172;-6.552;2022-07-06T11:34:01;100495.22;;;20.77;38.69
39715;BME280;54166;53.172;-6.552;2022-07-06T11:36:29;100491.70;;;20.78;38.73
39715;BME280;54166;53.172;-6.552;2022-07-06T11:38:56;100492.87;;;20.46;38.83
39715;BME280;54166;53.172;-6.552;2022-07-06T11:41:23;100483.93;;;20.08;38.86
39715;BME280;54166;53.172;-6.552;2022-07-06T11:43:51;100493.39;;;20.81;39.06
39715;BME280;54166;53.172;-6.552;2022-07-06T11:46:22;100490.55;;;20.50;39.00
39715;BME280;54166;53.172;-6.552;2022-07-06T11:48:51;100491.48;;;20.09;38.76
39715;BME280;54166;53.172;-6.552;2022-07-06T11:51:19;100493.21;;;20.83;38.82
39715;BME280;54166;53.172;-6.552;2022-07-06T11:53:48;100490.86;;;20.49;38.60
39715;BME280;54166;53.172;-6.552;2022-07-06T11:56:17;100498.23;;;20.81;38.52
39715;BME280;54166;53.172;-6.552;2022-07-06T11:58:45;100490.11;;;20.48;38.52
39715;BME280;54166;53.172;-6.552;2022-07-06T12:01:13;100477.96;;;20.53;39.04
39715;BME280;54166;53.172;-6.552;2022-07-06T12:03:41;100477.17;;;20.54;39.07
39715;BME280;54166;53.172;-6.552;2022-07-06T12:06:14;100475.26;;;20.56;39.18
39715;BME280;54166;53.172;-6.552;2022-07-06T12:08:45;100469.30;;;20.89;39.18
39715;BME280;54166;53.172;-6.552;2022-07-06T12:11:19;100470.34;;;20.91;39.35
39715;BME280;54166;53.172;-6.552;2022-07-06T12:13:47;100475.56;;;20.93;39.51
39715;BME280;54166;53.172;-6.552;2022-07-06T12:16:15;100465.24;;;20.95;39.56
39715;BME280;54166;53.172;-6.552;2022-07-06T12:18:43;100463.11;;;20.98;39.47
39715;BME280;54166;53.172;-6.552;2022-07-06T12:21:13;100458.99;;;21.00;39.52
39715;BME280;54166;53.172;-6.552;2022-07-06T12:23:43;100454.64;;;20.66;39.54
39715;BME280;54166;53.172;-6.552;2022-07-06T12:26:11;100451.95;;;20.67;39.51
39715;BME280;54166;53.172;-6.552;2022-07-06T12:28:39;100451.90;;;21.02;39.46
39715;BME280;54166;53.172;-6.552;2022-07-06T12:31:07;100449.97;;;21.04;39.51
39715;BME280;54166;53.172;-6.552;2022-07-06T12:33:34;100454.61;;;20.29;39.68
39715;BME280;54166;53.172;-6.552;2022-07-06T12:36:11;100449.67;;;20.71;39.59
39715;BME280;54166;53.172;-6.552;2022-07-06T12:38:45;100445.38;;;20.71;39.57
39715;BME280;54166;53.172;-6.552;2022-07-06T12:41:31;100439.37;;;20.74;39.57
39715;BME280;54166;53.172;-6.552;2022-07-06T12:44:05;100439.04;;;20.72;39.81
39715;BME280;54166;53.172;-6.552;2022-07-06T12:46:35;100437.87;;;20.75;39.91